Airfield :
LOGIN :

Register | Disclaimer

   EN    FR    IT 

 










Legend :    VFR   Marginal VFR   IFR   Intensive IFR   Very Intensive IFR
Visi :
Ceiling :
>= 8 km
>= 3000ft
5 to 8 km
1000 to 3000 ft
1500m to 5 km
500 to 1000 ft
800 to 1500m
200 to 500 ft
< 800m
< 200 ft
Symbols :   Thunderstorms  Fog  Heavy snow  Heavy precipitations  Wind > 20 kt
SIGMETs :     Misc.  Thunderstorms  Icing  Turbulence  Mountain Waves  Volcanic Ashes






- Airport Elevation : 989 ft
- IATA code : TRN


LIMF - Torino Caselle

CURRENT METAR :
  • 230750Z 08003KT 050V110 9999 FEW060 26/19 Q1017

EXPIRED METARs :
  • 230720Z VRB02KT CAVOK 26/20 Q1017
  • 230650Z 12003KT 100V160 CAVOK 24/19 Q1017
  • 230620Z 12002KT 9999 FEW070 23/19 Q1017
  • 230550Z 09004KT 060V120 9999 FEW070 23/19 Q1017
  • 230520Z 32006KT 9999 SCT070 25/18 Q1017
  • 230450Z 31006KT 9999 FEW070 24/18 Q1017
  • 230420Z 31006KT CAVOK 23/17 Q1016
  • 230350Z 31007KT CAVOK 23/17 Q1016
  • 230320Z 31005KT CAVOK 23/18 Q1016
  • 230250Z 32004KT 300V010 CAVOK 23/18 Q1016

TAF TAF LIMF
Valid from the 23 at 06:00 until the 24 at 06:00 UTC


230500Z 2306/2406 VRB05KT CAVOK



MET'MAP, your aeronautical weather chart ! - Copyright ORBIFLY December 2007 - Disclaimer

ORBIFLY MET'MAP TEAM :

Programming & Development : Alexandra Zaïnal
Original concept : Baudouin d'Aumeries
Technical & hardware support : Manuel Goepfert
Assistance : Marc-Olivier Méhu




SOURCES & CREDITS :

   NOAA